Time;durP1;ratioP1;P1;durP2;ratioP2;P2;SDS_P1;SDS_P2;PMS_P1;PMS_P2;Temp;Humidity;BMP_temperature;BMP_pressure;BME280_temperature;BME280_humidity;BME280_pressure;Samples;Min_cycle;Max_cycle;Signal;HPM_P1;HPM_P2
2022/06/09 02:48:16;;;;;;;0.65;0.00;;;14.10;99.90;;;;;;4990496;23;88285;-79
2022/06/09 02:50:46;;;;;;;0.50;0.00;;;14.10;99.90;;;;;;4932592;28;86768;-78
2022/06/09 02:53:13;;;;;;;0.93;0.10;;;14.00;99.90;;;;;;4933455;28;86284;-78
2022/06/09 02:55:38;;;;;;;1.45;0.10;;;14.10;99.90;;;;;;4932853;28;86837;-78
2022/06/09 02:58:04;;;;;;;1.95;0.00;;;14.20;99.90;;;;;;4933671;28;86092;-79
2022/06/09 03:00:31;;;;;;;0.65;0.00;;;14.10;99.90;;;;;;4934378;28;86815;-79
2022/06/09 03:02:59;;;;;;;1.23;0.08;;;14.20;99.90;;;;;;4936354;28;87079;-79
2022/06/09 03:05:26;;;;;;;0.77;0.00;;;14.10;99.90;;;;;;4933676;28;88191;-79
2022/06/09 03:07:52;;;;;;;1.02;0.10;;;14.20;99.90;;;;;;4934815;28;87050;-79
2022/06/09 03:10:18;;;;;;;0.60;0.10;;;14.20;99.90;;;;;;4935073;28;86918;-79
2022/06/09 03:12:44;;;;;;;1.15;0.08;;;14.30;99.90;;;;;;4935308;28;86801;-79
2022/06/09 03:15:12;;;;;;;0.35;0.10;;;14.30;99.90;;;;;;4933770;28;86694;-79
2022/06/09 03:17:38;;;;;;;0.50;0.00;;;14.30;99.90;;;;;;4931889;28;87033;-78
2022/06/09 03:20:06;;;;;;;0.50;0.00;;;14.30;99.90;;;;;;4934129;28;86650;-79
2022/06/09 03:22:32;;;;;;;1.05;0.03;;;14.30;99.90;;;;;;4934359;28;86068;-79
2022/06/09 03:24:59;;;;;;;1.48;0.10;;;14.50;99.90;;;;;;4934066;28;87251;-79
2022/06/09 03:27:24;;;;;;;0.25;0.00;;;14.50;99.90;;;;;;4934510;28;86915;-79
2022/06/09 03:29:51;;;;;;;0.30;0.00;;;14.50;99.90;;;;;;4933662;28;87711;-79
2022/06/09 03:32:16;;;;;;;2.47;0.20;;;14.60;99.90;;;;;;4935486;28;86609;-79
2022/06/09 03:34:42;;;;;;;1.08;0.03;;;14.50;99.90;;;;;;4934999;28;87398;-79
2022/06/09 03:37:08;;;;;;;1.58;0.05;;;14.50;99.90;;;;;;4934011;28;86672;-79
2022/06/09 03:39:34;;;;;;;0.50;0.00;;;14.50;99.90;;;;;;4935730;28;86639;-79
2022/06/09 03:42:00;;;;;;;0.38;0.00;;;14.60;99.90;;;;;;4937344;28;86671;-79
2022/06/09 03:44:26;;;;;;;1.33;0.22;;;14.50;99.90;;;;;;4935934;28;87271;-79
2022/06/09 03:46:51;;;;;;;0.65;0.03;;;14.50;99.90;;;;;;4935413;28;87221;-79
2022/06/09 03:49:17;;;;;;;0.63;0.10;;;14.40;99.90;;;;;;4932768;28;86873;-79
2022/06/09 03:51:43;;;;;;;0.55;0.10;;;14.40;99.90;;;;;;4932672;28;86961;-78
2022/06/09 03:54:08;;;;;;;1.83;0.10;;;14.40;99.90;;;;;;4932004;28;88013;-79
2022/06/09 03:56:34;;;;;;;0.85;0.00;;;14.40;99.90;;;;;;4933482;28;89739;-79
2022/06/09 03:59:00;;;;;;;0.75;0.03;;;14.50;99.90;;;;;;4933597;28;86775;-79
2022/06/09 04:01:26;;;;;;;0.40;0.00;;;14.50;99.90;;;;;;4933746;28;86856;-78
2022/06/09 04:03:51;;;;;;;0.90;0.00;;;14.50;99.90;;;;;;4933316;28;86781;-79
2022/06/09 04:06:20;;;;;;;1.08;0.10;;;14.50;99.90;;;;;;4932883;28;87829;-79
2022/06/09 04:08:48;;;;;;;0.30;0.10;;;14.30;99.90;;;;;;4932190;28;86687;-79
2022/06/09 04:11:15;;;;;;;0.30;0.08;;;14.30;99.90;;;;;;4933498;28;86007;-79
2022/06/09 04:13:41;;;;;;;1.08;0.20;;;14.20;99.90;;;;;;4933040;28;88174;-79
2022/06/09 04:16:23;;;;;;;4.47;0.10;;;14.10;99.90;;;;;;4931138;28;86982;-79
2022/06/09 04:18:50;;;;;;;0.40;0.00;;;14.20;99.90;;;;;;4932590;28;87733;-79
2022/06/09 04:21:16;;;;;;;0.55;0.10;;;14.20;99.90;;;;;;4931735;28;86872;-78
2022/06/09 04:23:42;;;;;;;0.90;0.15;;;14.20;99.90;;;;;;4930243;28;87919;-78
2022/06/09 04:26:15;;;;;;;4.03;0.10;;;14.30;99.90;;;;;;4931992;28;87333;-79
2022/06/09 04:28:41;;;;;;;1.15;0.10;;;14.10;99.90;;;;;;4930912;28;86863;-79
2022/06/09 04:31:07;;;;;;;0.80;0.10;;;13.90;99.90;;;;;;4930580;28;86673;-78
2022/06/09 04:33:32;;;;;;;1.02;0.10;;;13.80;99.90;;;;;;4931361;28;87156;-78
2022/06/09 04:35:58;;;;;;;1.83;0.10;;;13.60;99.90;;;;;;4930832;28;86853;-78
2022/06/09 04:38:24;;;;;;;1.02;0.10;;;13.60;99.90;;;;;;4930920;28;86298;-79
2022/06/09 04:40:49;;;;;;;2.33;0.10;;;13.60;99.90;;;;;;4930985;28;87081;-79
2022/06/09 04:43:15;;;;;;;0.77;0.10;;;13.60;99.90;;;;;;4930818;28;87659;-79
2022/06/09 04:45:42;;;;;;;0.98;0.10;;;13.70;99.90;;;;;;4930680;28;87037;-79
2022/06/09 04:48:09;;;;;;;0.93;0.10;;;13.80;99.90;;;;;;4928934;28;86828;-79
2022/06/09 04:50:35;;;;;;;0.88;0.00;;;13.90;99.90;;;;;;4932436;28;86765;-78
2022/06/09 04:53:01;;;;;;;0.68;0.10;;;13.90;99.90;;;;;;4934050;28;88369;-80
2022/06/09 04:55:27;;;;;;;1.40;0.10;;;13.90;99.90;;;;;;4931335;28;87362;-79
2022/06/09 04:57:53;;;;;;;2.15;0.13;;;13.80;99.90;;;;;;4933771;28;86732;-79
2022/06/09 05:00:19;;;;;;;9.50;2.47;;;13.70;99.90;;;;;;4934371;28;86297;-79
2022/06/09 05:02:45;;;;;;;1.02;0.10;;;13.70;99.90;;;;;;4932632;28;87662;-79
2022/06/09 05:05:25;;;;;;;0.82;0.10;;;13.70;99.90;;;;;;4930080;28;86661;-80
2022/06/09 05:07:50;;;;;;;1.05;0.10;;;13.80;99.90;;;;;;4928361;28;87366;-80
2022/06/09 05:10:17;;;;;;;0.93;0.10;;;13.80;99.90;;;;;;4930999;28;86989;-80
2022/06/09 05:12:43;;;;;;;1.77;0.20;;;13.80;99.90;;;;;;4931421;28;87859;-79
2022/06/09 05:15:13;;;;;;;1.63;0.10;;;14.10;99.90;;;;;;4931867;28;86919;-81
2022/06/09 05:17:39;;;;;;;2.80;0.10;;;14.20;99.90;;;;;;4929750;28;86757;-80
2022/06/09 05:20:05;;;;;;;1.40;0.10;;;14.50;99.90;;;;;;4930224;28;86340;-83
2022/06/09 05:22:31;;;;;;;1.25;0.20;;;14.50;99.90;;;;;;4934130;28;86805;-80
2022/06/09 05:24:59;;;;;;;3.10;0.20;;;14.60;99.90;;;;;;4934243;28;86044;-80
2022/06/09 05:27:25;;;;;;;1.80;0.25;;;14.70;99.90;;;;;;4933957;28;86708;-80
2022/06/09 05:29:51;;;;;;;2.65;0.20;;;14.60;99.90;;;;;;4934290;28;87029;-81
2022/06/09 05:32:17;;;;;;;1.45;0.25;;;14.70;99.90;;;;;;4933471;28;89171;-80
2022/06/09 05:34:43;;;;;;;9.18;0.52;;;14.60;99.90;;;;;;4933610;28;88272;-80
2022/06/09 05:37:09;;;;;;;1.73;0.13;;;14.40;99.90;;;;;;4933442;28;86846;-80
2022/06/09 05:45:04;;;;;;;2.92;0.22;;;14.40;99.90;;;;;;4932524;28;86834;-80
2022/06/09 05:47:30;;;;;;;1.50;0.20;;;14.40;99.90;;;;;;4931688;28;86837;-80
2022/06/09 05:49:56;;;;;;;3.25;0.20;;;14.50;99.90;;;;;;4932869;28;86102;-80
2022/06/09 05:52:25;;;;;;;2.88;0.20;;;14.60;99.90;;;;;;4933175;28;87216;-80
2022/06/09 05:54:52;;;;;;;4.75;0.20;;;14.80;99.90;;;;;;4933227;28;87250;-80
2022/06/09 05:57:20;;;;;;;2.67;0.30;;;15.00;99.90;;;;;;4934132;28;87155;-80
2022/06/09 05:59:46;;;;;;;4.22;0.20;;;15.30;99.90;;;;;;4934214;28;86833;-80
2022/06/09 06:02:12;;;;;;;1.38;0.20;;;15.90;99.90;;;;;;4933507;28;86755;-80
2022/06/09 06:04:38;;;;;;;1.30;0.10;;;16.40;99.90;;;;;;4932781;28;88408;-80
2022/06/09 06:07:04;;;;;;;5.90;0.20;;;16.70;99.90;;;;;;4933410;28;86582;-81
2022/06/09 06:09:30;;;;;;;2.65;0.30;;;16.60;99.90;;;;;;4933677;28;86682;-80
2022/06/09 06:11:56;;;;;;;2.20;0.13;;;16.40;99.90;;;;;;4933362;28;86708;-80
2022/06/09 06:14:23;;;;;;;1.42;0.22;;;16.20;99.90;;;;;;4933297;28;86403;-81
2022/06/09 06:16:50;;;;;;;2.30;0.20;;;16.20;99.90;;;;;;4933073;28;86746;-80
2022/06/09 06:19:18;;;;;;;1.20;0.10;;;16.40;99.90;;;;;;4933160;28;87073;-80
2022/06/09 06:21:45;;;;;;;0.80;0.10;;;16.60;99.90;;;;;;4931668;28;88255;-80
2022/06/09 06:24:11;;;;;;;1.42;0.10;;;16.90;99.90;;;;;;4933499;28;87873;-80
2022/06/09 06:26:37;;;;;;;1.02;0.10;;;17.10;99.90;;;;;;4932964;28;86249;-80
2022/06/09 06:29:06;;;;;;;1.10;0.10;;;17.40;99.20;;;;;;4933515;28;86255;-80
2022/06/09 06:31:32;;;;;;;1.67;0.20;;;17.70;98.60;;;;;;4932927;28;87152;-80
2022/06/09 06:33:58;;;;;;;1.85;0.20;;;17.80;96.90;;;;;;4933004;28;87842;-80
2022/06/09 06:36:24;;;;;;;1.65;0.10;;;18.00;95.40;;;;;;4933241;28;86692;-80
2022/06/09 06:38:50;;;;;;;3.28;0.10;;;18.40;95.70;;;;;;4934165;28;85627;-81
2022/06/09 06:41:17;;;;;;;0.73;0.10;;;19.00;92.60;;;;;;4935803;28;86728;-83
2022/06/09 06:43:44;;;;;;;0.50;0.10;;;19.80;91.10;;;;;;4938015;28;87018;-83
2022/06/09 06:46:10;;;;;;;0.98;0.10;;;20.10;87.70;;;;;;4937390;28;87810;-83
2022/06/09 06:48:36;;;;;;;1.27;0.10;;;19.70;85.40;;;;;;4942318;28;86860;-82
2022/06/09 06:51:02;;;;;;;0.50;0.13;;;19.30;86.60;;;;;;4945717;28;87099;-82
2022/06/09 06:53:28;;;;;;;5.30;0.17;;;19.50;88.00;;;;;;4945322;28;88382;-82
2022/06/09 06:55:54;;;;;;;1.48;0.13;;;20.10;87.00;;;;;;4944668;28;86735;-83
2022/06/09 06:58:19;;;;;;;0.63;0.10;;;20.90;80.90;;;;;;4936543;28;86380;-83
2022/06/09 07:00:45;;;;;;;0.90;0.20;;;21.40;79.00;;;;;;4935844;28;86668;-82
2022/06/09 07:03:12;;;;;;;0.57;0.10;;;20.80;78.00;;;;;;4937142;28;86126;-82
2022/06/09 07:05:38;;;;;;;1.38;0.20;;;20.40;78.30;;;;;;4932793;28;87013;-82
2022/06/09 07:08:05;;;;;;;0.90;0.10;;;19.70;79.50;;;;;;4932559;28;86857;-82
2022/06/09 07:10:31;;;;;;;0.60;0.10;;;18.90;82.30;;;;;;4930643;28;87834;-82
2022/06/09 07:12:59;;;;;;;1.10;0.13;;;18.80;83.70;;;;;;4931490;28;88237;-84
2022/06/09 07:15:25;;;;;;;0.63;0.20;;;18.40;84.80;;;;;;4933764;28;86589;-81
2022/06/09 07:17:51;;;;;;;1.13;0.20;;;18.30;85.80;;;;;;4936161;28;86444;-80
2022/06/09 07:20:16;;;;;;;1.27;0.20;;;18.30;86.20;;;;;;4936139;28;88151;-80
2022/06/09 07:22:43;;;;;;;0.40;0.00;;;18.30;86.50;;;;;;4936944;28;86829;-79
2022/06/09 07:25:20;;;;;;;0.65;0.10;;;17.90;86.70;;;;;;4937088;28;86751;-79
2022/06/09 07:27:51;;;;;;;1.35;0.20;;;17.80;89.10;;;;;;4936819;28;86034;-80
2022/06/09 07:30:19;;;;;;;0.77;0.10;;;17.70;89.10;;;;;;4933913;28;88636;-80
2022/06/09 07:32:45;;;;;;;0.45;0.10;;;17.30;91.10;;;;;;4933821;28;87483;-80
2022/06/09 07:35:13;;;;;;;0.93;0.10;;;17.40;91.90;;;;;;4933647;28;87853;-80
2022/06/09 07:37:39;;;;;;;1.05;0.10;;;17.60;91.00;;;;;;4934719;28;87023;-80
2022/06/09 07:40:05;;;;;;;1.70;0.20;;;17.70;90.70;;;;;;4934322;28;86668;-81
2022/06/09 07:42:31;;;;;;;1.65;0.15;;;17.60;89.50;;;;;;4933407;28;87109;-80
2022/06/09 07:44:57;;;;;;;1.55;0.20;;;17.50;90.80;;;;;;4933056;28;86784;-80
2022/06/09 07:47:24;;;;;;;1.48;0.10;;;16.70;91.40;;;;;;4932507;28;86856;-82
2022/06/09 07:49:50;;;;;;;1.52;0.13;;;16.40;92.90;;;;;;4931191;28;86919;-82
2022/06/09 07:52:17;;;;;;;0.45;0.00;;;16.10;93.00;;;;;;4931204;28;86413;-82
2022/06/09 07:54:43;;;;;;;1.13;0.10;;;16.00;92.80;;;;;;4929858;28;86636;-82
2022/06/09 07:57:08;;;;;;;1.63;0.50;;;15.70;93.40;;;;;;4930347;28;86575;-82
2022/06/09 07:59:35;;;;;;;3.10;0.10;;;15.70;93.20;;;;;;4929143;28;88631;-82
2022/06/09 08:02:01;;;;;;;3.72;0.10;;;15.60;92.70;;;;;;4929232;28;89799;-82
2022/06/09 08:04:26;;;;;;;0.50;0.10;;;15.70;94.30;;;;;;4929855;28;87339;-82
2022/06/09 08:06:52;;;;;;;3.08;0.20;;;15.70;94.40;;;;;;4929488;28;86237;-82
2022/06/09 08:09:18;;;;;;;0.40;0.10;;;15.50;94.30;;;;;;4928771;28;87238;-82
2022/06/09 08:11:46;;;;;;;0.85;0.08;;;15.40;95.20;;;;;;4928890;28;86802;-82
2022/06/09 08:14:12;;;;;;;1.23;0.10;;;15.50;95.50;;;;;;4929130;28;86699;-82
2022/06/09 08:16:38;;;;;;;0.30;0.00;;;15.40;95.70;;;;;;4931068;28;85936;-82
2022/06/09 08:19:05;;;;;;;0.88;0.13;;;15.40;95.60;;;;;;4930996;28;87214;-82
2022/06/09 08:21:31;;;;;;;1.65;0.10;;;15.40;96.10;;;;;;4930938;28;86676;-81
2022/06/09 08:23:57;;;;;;;1.63;0.03;;;15.40;96.10;;;;;;4930367;28;87845;-82
2022/06/09 08:26:23;;;;;;;0.73;0.03;;;15.30;94.70;;;;;;4931013;28;86932;-82
2022/06/09 08:28:49;;;;;;;2.50;0.10;;;15.20;94.60;;;;;;4932380;28;86852;-83
2022/06/09 08:31:15;;;;;;;0.30;0.03;;;15.10;95.60;;;;;;4931093;28;86870;-82
2022/06/09 08:33:40;;;;;;;1.05;0.00;;;15.20;95.10;;;;;;4934590;28;86634;-83
2022/06/09 08:36:06;;;;;;;0.20;0.00;;;15.00;95.40;;;;;;4933270;28;87004;-83
2022/06/09 08:38:32;;;;;;;1.00;0.10;;;14.90;96.20;;;;;;4932971;28;90030;-85
2022/06/09 08:41:03;;;;;;;1.23;0.10;;;15.20;97.10;;;;;;4933109;28;86255;-86
2022/06/09 08:44:12;;;;;;;0.60;0.10;;;15.60;96.10;;;;;;4931612;28;86803;-85
2022/06/09 08:46:48;;;;;;;2.45;0.20;;;15.80;95.30;;;;;;4924995;28;86684;-86
2022/06/09 08:49:16;;;;;;;0.77;0.10;;;15.90;94.70;;;;;;4932445;28;88291;-86
2022/06/09 08:51:47;;;;;;;1.60;0.10;;;15.80;94.50;;;;;;4932455;28;87919;-84
2022/06/09 08:54:20;;;;;;;2.05;0.00;;;15.60;92.90;;;;;;4933510;28;86654;-84
2022/06/09 08:56:47;;;;;;;0.32;0.00;;;15.50;93.60;;;;;;4933393;28;86718;-84
2022/06/09 08:59:20;;;;;;;0.77;0.10;;;15.30;93.30;;;;;;4933391;28;86736;-84
2022/06/09 09:01:56;;;;;;;0.20;0.00;;;15.00;93.40;;;;;;4935653;28;86862;-84
2022/06/09 09:04:32;;;;;;;3.42;0.00;;;14.90;94.20;;;;;;4933034;28;86423;-83
2022/06/09 09:07:07;;;;;;;0.22;0.00;;;15.00;95.60;;;;;;4932675;28;85937;-83
2022/06/09 09:09:35;;;;;;;0.55;0.00;;;14.90;94.50;;;;;;4932494;28;88282;-83
2022/06/09 09:12:03;;;;;;;0.50;0.00;;;15.00;94.10;;;;;;4932128;28;86723;-82
2022/06/09 09:14:53;;;;;;;0.55;0.10;;;15.30;94.70;;;;;;4932199;28;87753;-82
2022/06/09 09:17:22;;;;;;;1.25;0.10;;;18.50;90.30;;;;;;4933089;28;86718;-82
2022/06/09 09:19:55;;;;;;;1.42;0.32;;;19.50;79.90;;;;;;4934288;28;87438;-82
2022/06/09 09:22:38;;;;;;;1.88;0.30;;;18.30;85.00;;;;;;4934782;28;86765;-84
2022/06/09 09:25:07;;;;;;;1.27;0.10;;;19.00;85.50;;;;;;4935139;28;86686;-82
2022/06/09 09:27:39;;;;;;;1.23;0.13;;;21.60;78.50;;;;;;4933469;28;86730;-82
2022/06/09 09:30:22;;;;;;;0.85;0.13;;;25.60;62.90;;;;;;4935419;28;87297;-81
2022/06/09 09:32:52;;;;;;;4.00;0.13;;;24.70;58.50;;;;;;4935687;28;87281;-83
2022/06/09 09:35:22;;;;;;;1.25;0.10;;;21.60;66.90;;;;;;4934262;28;86734;-83
2022/06/09 09:37:54;;;;;;;0.75;0.22;;;19.30;76.80;;;;;;4935445;28;86662;-83
2022/06/09 09:40:34;;;;;;;0.63;0.22;;;19.90;75.10;;;;;;4935701;28;88526;-84
2022/06/09 09:43:08;;;;;;;1.63;0.20;;;20.50;72.10;;;;;;4933131;28;89033;-84
2022/06/09 09:45:42;;;;;;;2.60;0.20;;;20.00;71.00;;;;;;4933218;28;86574;-83
2022/06/09 09:48:30;;;;;;;0.60;0.10;;;18.60;73.10;;;;;;4932353;28;86715;-83
2022/06/09 09:51:05;;;;;;;0.88;0.10;;;17.30;81.00;;;;;;4934348;28;86712;-83
2022/06/09 09:53:38;;;;;;;0.95;0.10;;;17.60;79.60;;;;;;4932952;28;87933;-83
2022/06/09 09:56:21;;;;;;;0.40;0.20;;;17.60;80.20;;;;;;4933764;28;86623;-83
2022/06/09 09:58:47;;;;;;;0.70;0.00;;;17.10;82.60;;;;;;4933518;28;85955;-83
2022/06/09 10:01:25;;;;;;;0.65;0.10;;;16.90;81.60;;;;;;4932551;28;86528;-83
2022/06/09 10:09:42;;;;;;;11.80;3.10;;;16.80;83.50;;;;;;4937034;28;86863;-83
2022/06/09 10:12:18;;;;;;;3.55;1.13;;;16.50;85.10;;;;;;4933510;28;88322;-80
2022/06/09 10:14:52;;;;;;;1.27;0.20;;;16.30;87.30;;;;;;4934739;28;86892;-83
2022/06/09 10:17:23;;;;;;;1.08;0.10;;;16.50;87.30;;;;;;4933478;28;86783;-81
2022/06/09 10:19:53;;;;;;;1.63;0.10;;;16.60;86.80;;;;;;4931218;28;86694;-81
2022/06/09 10:22:22;;;;;;;2.97;0.20;;;16.70;90.00;;;;;;4930811;28;86853;-81
2022/06/09 10:24:59;;;;;;;1.02;0.13;;;17.40;88.40;;;;;;4931405;28;86821;-81
2022/06/09 10:27:33;;;;;;;0.88;0.05;;;17.80;84.60;;;;;;4931343;28;86388;-81
2022/06/09 10:30:05;;;;;;;2.00;0.10;;;18.10;82.10;;;;;;4932122;28;86655;-81
2022/06/09 10:32:41;;;;;;;0.80;0.20;;;18.00;79.80;;;;;;4930873;28;88687;-81
2022/06/09 10:35:44;;;;;;;1.17;0.15;;;17.90;79.70;;;;;;4933160;28;88776;-81
2022/06/09 10:38:25;;;;;;;1.00;0.10;;;17.60;81.10;;;;;;4933555;28;86929;-81
2022/06/09 10:40:57;;;;;;;2.15;0.10;;;17.50;83.30;;;;;;4934827;28;86694;-81
2022/06/09 10:43:44;;;;;;;2.03;0.10;;;17.50;81.00;;;;;;4935248;28;87380;-79
2022/06/09 10:46:19;;;;;;;1.33;0.08;;;18.00;81.30;;;;;;4934384;28;87072;-79
2022/06/09 10:55:45;;;;;;;1.40;0.20;;;17.90;83.00;;;;;;4927285;28;86587;-81
2022/06/09 10:58:53;;;;;;;1.40;0.20;;;18.70;78.30;;;;;;4900101;28;87007;-81
2022/06/09 11:01:28;;;;;;;;;;;19.00;76.80;;;;;;4873843;29;87264;-81
2022/06/09 11:03:54;;;;;;;0.28;0.10;;;18.90;77.50;;;;;;4928901;28;86822;-81
2022/06/09 11:06:41;;;;;;;2.03;0.25;;;19.10;76.30;;;;;;4933293;28;87190;-82
2022/06/09 11:09:10;;;;;;;1.02;0.10;;;19.50;76.60;;;;;;4933877;28;87265;-81
2022/06/09 11:12:04;;;;;;;1.73;0.32;;;19.50;77.40;;;;;;4933535;28;86570;-81
2022/06/09 11:14:48;;;;;;;2.50;0.30;;;19.20;72.50;;;;;;4933019;28;86671;-81
2022/06/09 11:17:25;;;;;;;3.00;0.30;;;18.60;79.30;;;;;;4933895;28;88181;-81
2022/06/09 11:20:12;;;;;;;2.13;0.30;;;18.60;76.60;;;;;;4933592;28;87417;-82
2022/06/09 11:23:07;;;;;;;1.50;0.17;;;17.80;77.70;;;;;;4933188;28;86819;-81
2022/06/09 11:25:56;;;;;;;1.90;0.15;;;17.80;76.20;;;;;;4932872;28;86803;-81
2022/06/09 11:28:40;;;;;;;;;;;17.70;73.70;;;;;;4930710;28;88743;-78
2022/06/09 11:31:32;;;;;;;1.35;0.03;;;17.60;74.90;;;;;;4931506;28;89365;-80
2022/06/09 11:34:06;;;;;;;0.68;0.10;;;16.50;79.00;;;;;;4932343;28;86776;-81
2022/06/09 11:36:52;;;;;;;2.45;0.10;;;16.30;86.70;;;;;;4931562;28;86886;-81
2022/06/09 11:39:39;;;;;;;0.60;0.05;;;16.60;85.50;;;;;;4931671;28;87065;-82
2022/06/09 11:42:22;;;;;;;1.48;0.10;;;16.90;81.00;;;;;;4931463;28;86376;-82
2022/06/09 11:44:52;;;;;;;2.95;0.13;;;16.80;82.40;;;;;;4931602;28;86812;-82
2022/06/09 11:47:21;;;;;;;1.27;0.15;;;17.10;85.80;;;;;;4931243;28;86045;-82
2022/06/09 11:49:57;;;;;;;1.80;0.10;;;17.40;85.50;;;;;;4914242;28;87040;-80
2022/06/09 11:52:25;;;;;;;;;;;17.60;82.50;;;;;;4931380;28;86821;-81
2022/06/09 11:54:55;;;;;;;0.68;0.10;;;17.70;82.10;;;;;;4932430;28;87720;-81
2022/06/09 11:57:44;;;;;;;1.25;0.10;;;17.70;80.50;;;;;;4933444;28;86312;-80
2022/06/09 12:00:19;;;;;;;2.95;0.20;;;18.00;81.60;;;;;;4936559;28;86888;-80
2022/06/09 12:03:00;;;;;;;1.58;0.28;;;18.20;81.30;;;;;;4941308;28;89947;-80
2022/06/09 12:05:54;;;;;;;0.95;0.13;;;18.20;81.80;;;;;;4941122;28;86542;-80
2022/06/09 12:08:41;;;;;;;1.67;0.70;;;18.20;81.70;;;;;;4899562;28;86963;-82
2022/06/09 12:11:18;;;;;;;0.52;0.10;;;18.40;81.60;;;;;;4930952;28;86882;-82
2022/06/09 12:13:59;;;;;;;0.68;0.25;;;18.80;78.20;;;;;;4930681;28;86915;-81
2022/06/09 12:16:31;;;;;;;3.45;0.22;;;18.70;74.10;;;;;;4931049;28;86728;-82
2022/06/09 12:19:23;;;;;;;1.70;0.20;;;19.10;75.60;;;;;;4930583;28;86691;-82
2022/06/09 12:21:55;;;;;;;3.85;0.15;;;19.80;75.50;;;;;;4930017;28;87478;-82
2022/06/09 12:24:35;;;;;;;1.00;0.13;;;20.40;75.60;;;;;;4930444;28;87826;-82
2022/06/09 12:27:21;;;;;;;1.15;0.13;;;20.70;70.00;;;;;;4931051;28;86857;-82
2022/06/09 12:30:25;;;;;;;1.10;0.10;;;20.10;69.10;;;;;;4930414;28;86813;-81
2022/06/09 12:33:18;;;;;;;0.60;0.17;;;19.80;72.50;;;;;;4929949;28;88951;-81
2022/06/09 12:36:12;;;;;;;2.88;0.17;;;19.90;74.60;;;;;;4929702;28;86885;-81
2022/06/09 12:38:55;;;;;;;2.03;0.30;;;20.40;66.70;;;;;;4930546;28;86850;-81
2022/06/09 12:41:30;;;;;;;1.58;0.43;;;20.50;66.20;;;;;;4931091;28;85906;-80
2022/06/09 12:44:05;;;;;;;2.95;0.30;;;20.50;68.50;;;;;;4930431;28;87630;-81
2022/06/09 12:46:31;;;;;;;3.42;0.20;;;20.40;73.00;;;;;;4927804;28;86899;-79
2022/06/09 12:48:58;;;;;;;1.52;0.10;;;20.60;72.00;;;;;;4929956;28;87867;-82
2022/06/09 12:51:31;;;;;;;1.27;0.30;;;20.80;72.10;;;;;;4930277;28;86968;-81
2022/06/09 12:54:02;;;;;;;3.78;0.32;;;20.80;71.00;;;;;;4929949;28;87222;-81
2022/06/09 12:56:33;;;;;;;1.25;0.30;;;20.90;70.70;;;;;;4930183;28;87287;-81
2022/06/09 12:59:13;;;;;;;0.93;0.20;;;20.60;73.00;;;;;;4930686;28;86829;-81
2022/06/09 13:01:59;;;;;;;2.58;0.10;;;20.70;74.20;;;;;;4930148;28;86687;-81
2022/06/09 13:04:27;;;;;;;1.42;0.32;;;21.10;73.50;;;;;;4929573;28;86640;-80
2022/06/09 13:06:56;;;;;;;2.35;0.30;;;21.10;69.10;;;;;;4929543;28;86128;-80
2022/06/09 13:09:29;;;;;;;0.82;0.20;;;21.30;71.00;;;;;;4930001;28;86814;-81
2022/06/09 13:14:48;;;;;;;1.08;0.20;;;21.00;71.70;;;;;;4929257;28;88258;-81
2022/06/09 13:17:26;;;;;;;1.48;0.20;;;20.90;71.20;;;;;;4929712;28;89596;-81
2022/06/09 13:20:05;;;;;;;0.80;0.30;;;20.80;71.90;;;;;;4929577;28;86762;-81
2022/06/09 13:22:32;;;;;;;3.42;0.20;;;20.50;73.60;;;;;;4930049;28;86892;-81
2022/06/09 13:24:59;;;;;;;1.42;0.20;;;20.40;73.80;;;;;;4929594;28;86861;-81
2022/06/09 13:27:28;;;;;;;2.92;0.20;;;20.60;72.90;;;;;;4929901;28;86858;-80
2022/06/09 13:30:28;;;;;;;2.25;0.22;;;20.30;69.90;;;;;;4929462;28;86588;-81
2022/06/09 13:32:54;;;;;;;1.70;0.15;;;20.20;70.20;;;;;;4928132;28;86162;-83
2022/06/09 13:35:41;;;;;;;1.75;0.10;;;20.20;70.30;;;;;;4928129;28;86847;-83
2022/06/09 13:38:46;;;;;;;0.93;0.10;;;20.10;70.40;;;;;;4924690;28;86423;-80
2022/06/09 13:41:18;;;;;;;0.95;0.10;;;20.00;71.80;;;;;;4818192;29;87867;-80
2022/06/09 13:43:47;;;;;;;1.15;0.20;;;19.90;71.40;;;;;;4821583;29;87561;-80
2022/06/09 13:46:15;;;;;;;;;;;19.80;70.70;;;;;;4878768;28;90031;-80
2022/06/09 13:48:53;;;;;;;0.88;0.10;;;19.70;71.80;;;;;;4924066;28;86916;-78
2022/06/09 13:51:21;;;;;;;1.15;0.20;;;19.60;73.00;;;;;;4924920;28;87042;-80
2022/06/09 13:53:50;;;;;;;2.65;0.20;;;19.60;73.70;;;;;;4924464;28;87172;-80
2022/06/09 13:56:17;;;;;;;1.20;0.20;;;19.70;72.70;;;;;;4923909;28;87270;-79
2022/06/09 13:58:43;;;;;;;1.73;0.22;;;19.60;74.50;;;;;;4924950;28;87015;-80
2022/06/09 14:01:10;;;;;;;1.90;0.28;;;19.70;74.40;;;;;;4919433;28;87167;-80
2022/06/09 14:03:46;;;;;;;1.50;0.20;;;19.80;72.50;;;;;;4924668;28;87028;-80
2022/06/09 14:06:15;;;;;;;1.23;0.20;;;20.20;71.80;;;;;;4924271;28;88668;-80
2022/06/09 14:08:45;;;;;;;0.93;0.10;;;20.40;69.50;;;;;;4924908;28;88010;-80
2022/06/09 14:11:23;;;;;;;0.75;0.10;;;20.30;71.10;;;;;;4925402;28;87047;-80
2022/06/09 14:13:51;;;;;;;3.33;0.40;;;20.50;70.10;;;;;;4922125;28;87381;-78
2022/06/09 14:16:35;;;;;;;1.88;0.28;;;20.70;69.50;;;;;;4924463;28;88531;-80
2022/06/09 14:19:03;;;;;;;0.82;0.10;;;20.70;67.80;;;;;;4906378;28;89842;-80
2022/06/09 14:21:30;;;;;;;1.38;0.25;;;20.40;68.70;;;;;;4924962;28;86871;-80
2022/06/09 14:24:02;;;;;;;1.77;0.10;;;20.30;68.90;;;;;;4925924;28;86677;-80
2022/06/09 14:26:35;;;;;;;1.15;0.20;;;20.00;71.00;;;;;;4923847;28;87193;-80
2022/06/09 14:29:04;;;;;;;1.95;0.20;;;19.50;72.50;;;;;;4924443;28;87142;-80
2022/06/09 14:31:29;;;;;;;1.58;0.10;;;19.10;73.80;;;;;;4923431;28;87995;-80
2022/06/09 14:33:55;;;;;;;2.67;0.20;;;18.70;75.00;;;;;;4924268;28;87412;-80
2022/06/09 14:36:25;;;;;;;1.42;0.20;;;18.60;77.00;;;;;;4924447;28;87068;-79
2022/06/09 14:38:52;;;;;;;2.00;0.13;;;18.30;77.50;;;;;;4919445;28;86869;-80
2022/06/09 14:41:19;;;;;;;1.83;0.10;;;18.20;77.30;;;;;;4923598;28;86858;-80
2022/06/09 14:43:45;;;;;;;3.35;0.10;;;18.00;78.80;;;;;;4923883;28;86983;-80
2022/06/09 14:46:19;;;;;;;1.42;0.10;;;18.00;78.80;;;;;;4922695;28;87159;-80
2022/06/09 14:48:45;;;;;;;1.83;0.10;;;17.70;78.70;;;;;;4922995;28;87291;-80
2022/06/09 14:51:12;;;;;;;1.58;0.30;;;17.80;79.00;;;;;;4923922;28;87054;-80
2022/06/09 14:53:38;;;;;;;1.48;0.10;;;18.20;78.40;;;;;;4923495;28;86943;-80
2022/06/09 14:56:05;;;;;;;1.67;0.10;;;18.50;78.00;;;;;;4921915;28;89481;-80
2022/06/09 14:58:30;;;;;;;1.13;0.10;;;18.90;77.60;;;;;;4922465;28;87273;-80
2022/06/09 15:00:56;;;;;;;7.28;0.10;;;19.20;73.80;;;;;;4922222;28;87182;-80
2022/06/09 15:03:23;;;;;;;1.17;0.10;;;19.30;74.00;;;;;;4923008;28;87203;-80
2022/06/09 15:05:50;;;;;;;1.77;0.10;;;19.40;75.00;;;;;;4922087;28;87529;-80
2022/06/09 15:08:15;;;;;;;1.20;0.20;;;19.70;73.70;;;;;;4923217;28;88214;-80
2022/06/09 15:10:47;;;;;;;2.03;0.20;;;19.60;72.90;;;;;;4923368;28;86538;-80
2022/06/09 15:13:13;;;;;;;2.00;0.10;;;19.40;72.10;;;;;;4931186;28;85517;-80
2022/06/09 15:15:41;;;;;;;1.40;0.20;;;19.00;72.50;;;;;;4934811;28;86602;-80
2022/06/09 15:18:13;;;;;;;2.22;0.20;;;18.90;74.80;;;;;;4937457;28;87420;-80
2022/06/09 15:20:40;;;;;;;2.88;0.10;;;18.90;73.90;;;;;;4928184;28;87753;-80
2022/06/09 15:23:07;;;;;;;0.95;0.15;;;18.90;75.10;;;;;;4929181;28;86827;-80
2022/06/09 15:25:33;;;;;;;0.80;0.13;;;19.10;75.70;;;;;;4931738;28;87190;-80
2022/06/09 15:27:59;;;;;;;2.28;0.30;;;19.50;74.10;;;;;;4929240;28;86680;-80
2022/06/09 15:30:28;;;;;;;2.50;0.30;;;19.50;73.70;;;;;;4921797;28;86742;-80
2022/06/09 15:32:54;;;;;;;3.63;0.20;;;19.80;73.40;;;;;;4922806;28;86903;-81
2022/06/09 15:35:21;;;;;;;1.10;0.10;;;19.90;72.10;;;;;;4927905;28;87175;-80
2022/06/09 15:37:47;;;;;;;2.50;0.10;;;19.70;72.00;;;;;;4932213;28;86203;-83
2022/06/09 15:40:19;;;;;;;1.08;0.20;;;19.80;72.90;;;;;;4928360;28;87046;-81
2022/06/09 15:42:45;;;;;;;2.53;0.20;;;19.80;73.20;;;;;;4929821;28;86828;-81
2022/06/09 15:45:13;;;;;;;1.90;0.22;;;19.70;74.80;;;;;;4931120;28;87700;-81
2022/06/09 15:47:39;;;;;;;1.52;0.10;;;19.60;73.40;;;;;;4931061;28;87858;-81
2022/06/09 15:50:07;;;;;;;1.00;0.10;;;19.40;73.60;;;;;;4929220;28;86760;-80
2022/06/09 15:52:32;;;;;;;2.70;0.17;;;19.30;74.50;;;;;;4928662;28;86737;-81
2022/06/09 15:54:58;;;;;;;0.75;0.10;;;19.10;75.80;;;;;;4927889;28;89045;-81
2022/06/09 15:57:24;;;;;;;1.13;0.10;;;19.00;76.20;;;;;;4930056;28;86972;-81
2022/06/09 15:59:50;;;;;;;1.58;0.20;;;19.00;76.20;;;;;;4931287;28;86788;-81
2022/06/09 16:02:15;;;;;;;2.97;0.10;;;19.00;76.00;;;;;;4931988;28;86088;-81
2022/06/09 16:04:43;;;;;;;1.42;0.13;;;18.90;76.80;;;;;;4930697;28;88513;-81
2022/06/09 16:07:13;;;;;;;1.08;0.20;;;18.90;77.20;;;;;;4909488;28;87528;-81
2022/06/09 16:09:39;;;;;;;1.77;0.10;;;18.70;76.50;;;;;;4930835;28;87754;-81
2022/06/09 16:12:06;;;;;;;2.05;0.20;;;18.70;76.90;;;;;;4931178;28;86273;-81
2022/06/09 16:14:32;;;;;;;0.85;0.10;;;18.60;76.60;;;;;;4930663;28;89933;-81